createdAt,value
2022-10-17T00:00:38.615Z,14.98
2022-10-17T00:03:05.885Z,14.35
2022-10-17T00:05:33.144Z,18.63
2022-10-17T00:08:00.322Z,15.32
2022-10-17T00:10:27.617Z,16.45
2022-10-17T00:12:54.784Z,19.08
2022-10-17T00:15:23.140Z,15.35
2022-10-17T00:17:50.384Z,17.17
2022-10-17T00:20:17.865Z,13.48
2022-10-17T00:22:45.044Z,11.77
2022-10-17T00:25:12.571Z,16.13
2022-10-17T00:27:41.096Z,11.98
2022-10-17T00:30:10.515Z,16.48
2022-10-17T00:32:37.787Z,13.60
2022-10-17T00:35:05.100Z,14.57
2022-10-17T00:37:32.761Z,15.95
2022-10-17T00:40:00.289Z,15.30
2022-10-17T00:42:28.464Z,13.82
2022-10-17T00:45:06.084Z,14.75
2022-10-17T00:47:33.997Z,13.95
2022-10-17T00:52:31.145Z,13.77
2022-10-17T00:55:04.213Z,13.02
2022-10-17T00:57:32.457Z,12.38
2022-10-17T01:00:00.422Z,16.30
2022-10-17T01:02:27.940Z,12.43
2022-10-17T01:04:59.544Z,12.18
2022-10-17T01:09:54.664Z,13.73
2022-10-17T01:12:21.930Z,15.55
2022-10-17T01:15:01.282Z,13.73
2022-10-17T01:17:47.012Z,13.38
2022-10-17T01:20:30.612Z,14.63
2022-10-17T01:23:16.682Z,13.80
2022-10-17T01:25:53.312Z,20.27
2022-10-17T01:28:39.148Z,16.83
2022-10-17T01:31:06.313Z,15.60
2022-10-17T01:33:39.552Z,13.73
2022-10-17T01:36:26.906Z,13.32
2022-10-17T01:38:58.268Z,14.77
2022-10-17T01:41:26.007Z,17.80
2022-10-17T01:44:12.142Z,14.15
2022-10-17T01:46:40.683Z,16.00
2022-10-17T01:49:09.233Z,17.05
2022-10-17T01:51:36.497Z,15.40
2022-10-17T01:54:06.816Z,12.90
2022-10-17T01:56:34.803Z,20.50
2022-10-17T01:59:05.354Z,21.08
2022-10-17T02:01:32.708Z,15.45
2022-10-17T02:04:00.765Z,14.35
2022-10-17T02:06:27.975Z,15.32
2022-10-17T02:08:55.086Z,16.55
2022-10-17T02:11:22.978Z,16.83
2022-10-17T02:14:06.653Z,18.55
2022-10-17T02:16:40.940Z,15.10
2022-10-17T02:19:13.217Z,16.58
2022-10-17T02:21:43.375Z,15.70
2022-10-17T02:24:16.515Z,17.85
2022-10-17T02:26:54.209Z,16.40
2022-10-17T02:29:28.767Z,17.98
2022-10-17T02:31:59.853Z,19.50
2022-10-17T02:34:28.823Z,17.05
2022-10-17T02:36:58.212Z,17.02
2022-10-17T02:39:26.530Z,16.42
2022-10-17T02:41:54.866Z,19.92
2022-10-17T02:44:22.591Z,19.35
2022-10-17T02:46:53.165Z,13.55
2022-10-17T02:49:29.210Z,15.65
2022-10-17T02:51:56.353Z,20.00
2022-10-17T02:54:42.143Z,15.98
2022-10-17T02:57:19.419Z,19.83
2022-10-17T02:59:47.524Z,18.80
2022-10-17T03:02:14.643Z,15.98
2022-10-17T03:04:45.441Z,17.05
2022-10-17T03:07:12.638Z,14.93
2022-10-17T03:09:39.804Z,15.48
2022-10-17T03:12:06.955Z,15.55
2022-10-17T03:14:34.128Z,17.25
2022-10-17T03:17:01.415Z,16.85
2022-10-17T03:19:28.527Z,14.27
2022-10-17T03:21:56.511Z,18.67
2022-10-17T03:24:23.650Z,17.83
2022-10-17T03:26:50.762Z,15.90
2022-10-17T03:29:17.958Z,20.92
2022-10-17T03:31:45.104Z,14.82
2022-10-17T03:34:12.305Z,16.23
2022-10-17T03:36:39.565Z,19.77
2022-10-17T03:39:06.742Z,15.30
2022-10-17T03:41:33.967Z,17.20
2022-10-17T03:44:01.174Z,14.60
2022-10-17T03:46:28.281Z,15.32
2022-10-17T03:48:55.387Z,14.65
2022-10-17T03:51:22.817Z,14.25
2022-10-17T03:53:49.956Z,15.40
2022-10-17T03:56:18.660Z,18.75
2022-10-17T03:58:45.959Z,14.00
2022-10-17T04:01:14.130Z,13.95
2022-10-17T04:03:41.395Z,16.95
2022-10-17T04:06:08.878Z,13.60
2022-10-17T04:08:36.009Z,22.38
2022-10-17T04:11:04.496Z,12.35
2022-10-17T04:13:32.392Z,15.57
2022-10-17T04:16:00.840Z,12.80
2022-10-17T04:18:27.971Z,14.25
2022-10-17T04:20:55.308Z,14.43
2022-10-17T04:23:22.785Z,14.13
2022-10-17T04:25:49.933Z,13.70
2022-10-17T04:28:17.220Z,12.43
2022-10-17T04:30:45.567Z,14.93
2022-10-17T04:33:12.884Z,12.48
2022-10-17T04:35:40.164Z,14.75
2022-10-17T04:38:07.279Z,17.38
2022-10-17T04:40:34.377Z,14.57
2022-10-17T04:43:01.578Z,13.73
2022-10-17T04:45:28.676Z,15.25
2022-10-17T04:47:55.880Z,16.55
2022-10-17T04:50:23.164Z,11.77
2022-10-17T04:52:50.290Z,16.88
2022-10-17T04:55:17.437Z,18.60
2022-10-17T04:57:44.616Z,18.30
2022-10-17T05:00:12.167Z,16.70
2022-10-17T05:02:39.268Z,17.77
2022-10-17T05:05:06.656Z,17.35
2022-10-17T05:07:33.792Z,16.85
2022-10-17T05:10:00.916Z,17.75
2022-10-17T05:12:28.318Z,20.77
2022-10-17T05:14:55.583Z,19.80
2022-10-17T05:17:22.686Z,23.95
2022-10-17T05:19:49.938Z,20.23
2022-10-17T05:22:17.149Z,20.08
2022-10-17T05:24:44.286Z,16.85
2022-10-17T05:27:11.502Z,23.92
2022-10-17T05:29:39.728Z,18.40
2022-10-17T05:32:06.845Z,21.38
2022-10-17T05:34:35.021Z,22.15
2022-10-17T05:37:02.241Z,19.67
2022-10-17T05:39:29.359Z,19.48
2022-10-17T05:41:56.596Z,21.80
2022-10-17T05:44:23.724Z,24.88
2022-10-17T05:46:51.037Z,20.88
2022-10-17T05:49:32.013Z,23.30
2022-10-17T05:52:00.275Z,20.33
2022-10-17T05:54:27.794Z,22.02
2022-10-17T05:56:55.829Z,17.60
2022-10-17T05:59:23.022Z,19.90
2022-10-17T06:01:50.528Z,18.98
2022-10-17T06:04:17.690Z,17.02
2022-10-17T06:06:44.847Z,15.82
2022-10-17T06:09:12.117Z,19.85
2022-10-17T06:11:39.233Z,21.52
2022-10-17T06:14:06.345Z,23.38
2022-10-17T06:16:33.570Z,22.20
2022-10-17T06:19:00.690Z,22.38
2022-10-17T06:21:28.419Z,19.00
2022-10-17T06:23:55.680Z,16.73
2022-10-17T06:26:22.825Z,15.00
2022-10-17T06:28:49.999Z,22.33
2022-10-17T06:31:17.672Z,16.38
2022-10-17T06:33:44.857Z,23.38
2022-10-17T06:36:12.979Z,16.13
2022-10-17T06:38:40.515Z,17.63
2022-10-17T06:41:13.653Z,12.35
2022-10-17T06:43:43.215Z,14.48
2022-10-17T06:46:10.696Z,17.75
2022-10-17T06:48:37.834Z,22.83
2022-10-17T06:51:05.675Z,18.00
2022-10-17T06:53:33.964Z,15.20
2022-10-17T06:56:03.137Z,15.48
2022-10-17T06:58:34.581Z,22.40
2022-10-17T07:01:02.467Z,17.73
2022-10-17T07:03:29.837Z,22.13
2022-10-17T07:05:57.439Z,18.90
2022-10-17T07:08:24.627Z,18.88
2022-10-17T07:10:51.806Z,23.60
2022-10-17T07:13:19.398Z,16.08
2022-10-17T07:15:46.881Z,12.02
2022-10-17T07:18:14.076Z,13.73
2022-10-17T07:20:41.461Z,15.25
2022-10-17T07:23:08.701Z,14.65
2022-10-17T07:25:40.047Z,15.93
2022-10-17T07:28:07.585Z,12.43
2022-10-17T07:30:34.781Z,20.92
2022-10-17T07:33:01.951Z,16.95
2022-10-17T07:35:29.142Z,14.93
2022-10-17T07:37:56.261Z,15.48
2022-10-17T07:40:23.407Z,17.27
2022-10-17T07:42:51.172Z,19.05
2022-10-17T07:45:18.346Z,16.70
2022-10-17T07:47:45.526Z,13.48
2022-10-17T07:50:12.729Z,21.38
2022-10-17T07:52:39.888Z,21.17
2022-10-17T07:55:07.834Z,17.63
2022-10-17T07:57:35.030Z,15.23
2022-10-17T08:00:02.171Z,10.75
2022-10-17T08:02:29.668Z,11.70
2022-10-17T08:04:57.023Z,9.32
2022-10-17T08:07:28.363Z,16.17
2022-10-17T08:09:56.639Z,11.20
2022-10-17T08:12:25.017Z,13.23
2022-10-17T08:14:52.176Z,15.35
2022-10-17T08:17:19.370Z,14.82
2022-10-17T08:19:46.476Z,18.10
2022-10-17T08:22:13.618Z,14.35
2022-10-17T08:24:42.885Z,14.15
2022-10-17T08:27:13.084Z,15.90
2022-10-17T08:29:40.872Z,15.07
2022-10-17T08:32:09.928Z,13.90
2022-10-17T08:34:37.383Z,14.68
2022-10-17T08:37:04.741Z,10.70
2022-10-17T08:39:31.976Z,10.75
2022-10-17T08:42:17.879Z,10.70
2022-10-17T08:44:48.073Z,17.25
2022-10-17T08:47:27.314Z,11.45
2022-10-17T08:49:57.522Z,10.18
2022-10-17T08:52:35.883Z,9.88
2022-10-17T08:55:03.075Z,10.82
2022-10-17T08:57:30.585Z,11.63
2022-10-17T08:59:57.967Z,13.45
2022-10-17T09:02:44.163Z,11.88
2022-10-17T09:05:30.231Z,12.05
2022-10-17T09:08:12.538Z,10.55
2022-10-17T09:10:42.800Z,10.27
2022-10-17T09:13:19.227Z,9.83
2022-10-17T09:16:07.675Z,15.05
2022-10-17T09:18:37.423Z,14.55
2022-10-17T09:21:18.493Z,14.05
2022-10-17T09:23:48.335Z,13.13
2022-10-17T09:26:15.955Z,16.85
2022-10-17T09:28:43.660Z,13.25
2022-10-17T09:31:17.653Z,17.80
2022-10-17T09:33:54.643Z,12.98
2022-10-17T09:36:22.024Z,12.88
2022-10-17T09:38:51.587Z,9.13
2022-10-17T09:41:44.171Z,10.35
2022-10-17T09:46:38.893Z,14.10
2022-10-17T09:49:11.252Z,17.92
2022-10-17T09:51:41.074Z,13.60
2022-10-17T09:54:16.347Z,10.30
2022-10-17T09:57:00.464Z,8.88
2022-10-17T09:59:35.615Z,10.00
2022-10-17T10:02:10.599Z,11.65
2022-10-17T10:04:59.753Z,12.18
2022-10-17T10:07:29.257Z,10.80
2022-10-17T10:09:57.122Z,18.00
2022-10-17T10:12:24.233Z,9.32
2022-10-17T10:14:54.686Z,8.40
2022-10-17T10:19:53.129Z,11.63
2022-10-17T10:22:23.597Z,12.75
2022-10-17T10:25:09.578Z,8.40
2022-10-17T10:27:37.180Z,11.25
2022-10-17T10:30:04.677Z,10.93
2022-10-17T10:32:35.771Z,12.07
2022-10-17T10:37:42.414Z,16.55
2022-10-17T10:40:18.945Z,12.32
2022-10-17T10:42:53.478Z,13.20
2022-10-17T10:45:46.512Z,8.20
2022-10-17T10:48:15.030Z,9.73
2022-10-17T10:50:46.917Z,10.02
2022-10-17T10:53:19.633Z,8.05
2022-10-17T10:55:52.437Z,13.38
2022-10-17T10:58:28.543Z,14.38
2022-10-17T11:00:57.267Z,14.48
2022-10-17T11:03:27.122Z,11.90
2022-10-17T11:05:59.288Z,8.88
2022-10-17T11:08:32.518Z,9.68
2022-10-17T11:11:04.485Z,13.48
2022-10-17T11:13:34.100Z,13.55
2022-10-17T11:16:20.314Z,18.38
2022-10-17T11:18:47.414Z,9.00
2022-10-17T11:21:20.737Z,12.25
2022-10-17T11:23:59.549Z,8.57
2022-10-17T11:26:32.372Z,11.00
2022-10-17T11:29:02.762Z,9.60
2022-10-17T11:31:34.684Z,10.23
2022-10-17T11:34:04.494Z,12.50
2022-10-17T11:36:32.923Z,9.13
2022-10-17T11:39:06.135Z,12.48
2022-10-17T11:41:40.860Z,14.02
2022-10-17T11:44:19.780Z,9.77
2022-10-17T11:46:49.152Z,12.00
2022-10-17T11:49:20.569Z,7.93
2022-10-17T11:52:31.622Z,10.60
2022-10-17T11:55:10.918Z,13.13
2022-10-17T11:57:57.110Z,14.25
2022-10-17T12:00:30.098Z,8.40
2022-10-17T12:03:16.090Z,9.80
2022-10-17T12:05:50.706Z,9.70
2022-10-17T12:08:20.724Z,8.75
2022-10-17T12:11:06.256Z,10.32
2022-10-17T12:13:33.424Z,9.05
2022-10-17T12:16:19.429Z,8.25
2022-10-17T12:18:47.559Z,13.50
2022-10-17T12:21:14.805Z,11.27
2022-10-17T12:23:41.987Z,16.73
2022-10-17T12:26:10.439Z,9.15
2022-10-17T12:28:40.650Z,11.82
2022-10-17T12:31:23.352Z,12.50
2022-10-17T12:33:52.040Z,9.70
2022-10-17T12:36:21.159Z,12.77
2022-10-17T12:38:57.202Z,9.10
2022-10-17T12:41:39.655Z,13.77
2022-10-17T12:44:28.745Z,11.85
2022-10-17T12:47:09.479Z,11.60
2022-10-17T12:49:56.437Z,11.20
2022-10-17T12:52:23.959Z,13.00
2022-10-17T12:55:10.953Z,13.52
2022-10-17T12:57:39.071Z,11.93
2022-10-17T13:00:21.070Z,11.98
2022-10-17T13:02:49.004Z,9.68
2022-10-17T13:05:42.438Z,8.05
2022-10-17T13:08:15.566Z,10.35
2022-10-17T13:10:47.918Z,12.57
2022-10-17T13:13:16.130Z,12.25
2022-10-17T13:15:47.389Z,9.27
2022-10-17T13:18:25.164Z,10.50
2022-10-17T13:20:56.456Z,8.95
2022-10-17T13:23:24.682Z,10.85
2022-10-17T13:26:04.132Z,12.40
2022-10-17T13:28:33.857Z,11.10
2022-10-17T13:31:03.076Z,9.25
2022-10-17T13:33:34.121Z,8.73
2022-10-17T13:38:30.076Z,11.02
2022-10-17T13:41:10.882Z,10.82
2022-10-17T13:43:44.959Z,9.98
2022-10-17T13:46:36.640Z,10.68
2022-10-17T13:49:11.296Z,12.35
2022-10-17T13:51:42.966Z,14.93
2022-10-17T13:54:28.641Z,13.63
2022-10-17T13:56:59.585Z,13.65
2022-10-17T13:59:28.719Z,16.63
2022-10-17T14:01:56.799Z,12.88
2022-10-17T14:04:24.003Z,14.13
2022-10-17T14:06:52.321Z,10.15
2022-10-17T14:09:27.662Z,13.02
2022-10-17T14:12:00.970Z,14.55
2022-10-17T14:14:29.104Z,12.50
2022-10-17T14:16:57.591Z,12.82
2022-10-17T14:19:32.455Z,20.23
2022-10-17T14:22:19.161Z,13.35
2022-10-17T14:24:46.427Z,26.20
2022-10-17T14:27:37.880Z,16.95
2022-10-17T14:30:06.906Z,16.88
2022-10-17T14:32:35.879Z,13.15
2022-10-17T14:35:37.096Z,16.65
2022-10-17T14:37:52.530Z,16.17
2022-10-17T14:40:20.957Z,19.08
2022-10-17T14:42:49.073Z,23.33
2022-10-17T14:45:23.808Z,17.23
2022-10-17T14:47:52.049Z,16.77
2022-10-17T14:50:26.678Z,12.80
2022-10-17T14:53:07.639Z,14.18
2022-10-17T14:55:35.979Z,14.05
2022-10-17T14:58:15.908Z,14.52
2022-10-17T15:00:43.072Z,13.27
2022-10-17T15:03:10.214Z,12.27
2022-10-17T15:05:37.388Z,14.80
2022-10-17T15:08:04.664Z,13.10
2022-10-17T15:10:33.961Z,14.13
2022-10-17T15:13:26.753Z,13.90
2022-10-17T15:15:52.253Z,13.45
2022-10-17T15:18:19.651Z,12.02
2022-10-17T15:20:46.828Z,11.45
2022-10-17T15:23:14.014Z,14.18
2022-10-17T15:25:41.175Z,13.25
2022-10-17T15:28:08.370Z,13.88
2022-10-17T15:30:36.470Z,10.93
2022-10-17T15:33:03.753Z,12.50
2022-10-17T15:35:30.995Z,12.20
2022-10-17T15:37:58.250Z,10.55
2022-10-17T15:40:28.505Z,12.02
2022-10-17T15:42:59.293Z,12.50
2022-10-17T15:45:26.423Z,13.80
2022-10-17T15:47:55.517Z,14.45
2022-10-17T15:50:22.863Z,13.77
2022-10-17T15:52:53.417Z,13.82
2022-10-17T15:55:20.701Z,16.98
2022-10-17T15:57:48.713Z,14.35
2022-10-17T16:00:20.439Z,11.63
2022-10-17T16:02:47.639Z,15.07
2022-10-17T16:05:29.156Z,18.05
2022-10-17T16:07:57.435Z,16.00
2022-10-17T16:10:25.898Z,15.27
2022-10-17T16:12:53.414Z,13.70
2022-10-17T16:15:27.925Z,15.88
2022-10-17T16:17:56.276Z,16.70
2022-10-17T16:20:24.234Z,16.60
2022-10-17T16:22:51.605Z,16.77
2022-10-17T16:25:23.031Z,15.52
2022-10-17T16:27:51.113Z,16.63
2022-10-17T16:30:18.741Z,21.90
2022-10-17T16:32:46.173Z,14.60
2022-10-17T16:35:21.529Z,15.88
2022-10-17T16:37:48.866Z,14.77
2022-10-17T16:40:16.241Z,15.40
2022-10-17T16:42:43.625Z,15.10
2022-10-17T16:45:16.010Z,17.05
2022-10-17T16:47:43.122Z,17.80
2022-10-17T16:50:10.528Z,18.35
2022-10-17T16:52:37.786Z,16.00
2022-10-17T16:55:05.084Z,15.65
2022-10-17T16:57:32.320Z,21.35
2022-10-17T16:59:59.698Z,17.40
2022-10-17T17:02:26.857Z,20.48
2022-10-17T17:04:54.029Z,15.25
2022-10-17T17:07:22.135Z,18.05
2022-10-17T17:09:49.279Z,16.58
2022-10-17T17:12:17.611Z,17.75
2022-10-17T17:14:44.976Z,17.55
2022-10-17T17:17:19.542Z,16.45
2022-10-17T17:19:57.845Z,14.77
2022-10-17T17:22:24.960Z,15.77
2022-10-17T17:24:52.111Z,17.17
2022-10-17T17:27:21.542Z,15.30
2022-10-17T17:29:48.707Z,15.88
2022-10-17T17:32:15.890Z,16.55
2022-10-17T17:34:43.165Z,14.93
2022-10-17T17:37:10.318Z,16.67
2022-10-17T17:39:37.461Z,15.20
2022-10-17T17:42:04.653Z,19.65
2022-10-17T17:44:32.075Z,15.70
2022-10-17T17:46:59.203Z,19.52
2022-10-17T17:49:26.457Z,16.67
2022-10-17T17:51:53.602Z,14.50
2022-10-17T17:54:20.793Z,21.40
2022-10-17T17:56:48.046Z,15.60
2022-10-17T17:59:15.254Z,19.42
2022-10-17T18:01:42.546Z,17.13
2022-10-17T18:04:10.217Z,20.67
2022-10-17T18:06:38.048Z,15.88
2022-10-17T18:09:05.820Z,22.67
2022-10-17T18:11:33.572Z,14.48
2022-10-17T18:14:02.391Z,15.40
2022-10-17T18:16:30.205Z,19.52
2022-10-17T18:18:59.491Z,16.42
2022-10-17T18:21:29.631Z,15.70
2022-10-17T18:23:56.837Z,16.48
2022-10-17T18:26:24.032Z,18.08
2022-10-17T18:28:51.406Z,17.73
2022-10-17T18:31:24.092Z,20.13
2022-10-17T18:33:55.219Z,21.25
2022-10-17T18:38:49.815Z,19.00
2022-10-17T18:41:18.478Z,15.98
2022-10-17T18:43:46.828Z,21.58
2022-10-17T18:46:18.542Z,15.90
2022-10-17T18:48:46.378Z,20.00
2022-10-17T18:51:14.424Z,15.85
2022-10-17T18:53:42.778Z,21.23
2022-10-17T18:56:10.214Z,20.63
2022-10-17T18:58:38.038Z,17.70
2022-10-17T19:01:06.173Z,20.70
2022-10-17T19:03:33.522Z,20.92
2022-10-17T19:06:01.649Z,19.63
2022-10-17T19:08:28.959Z,21.50
2022-10-17T19:10:56.073Z,22.67
2022-10-17T19:13:23.198Z,23.52
2022-10-17T19:15:50.377Z,23.67
2022-10-17T19:18:17.526Z,20.75
2022-10-17T19:20:45.929Z,22.25
2022-10-17T19:23:13.093Z,23.30
2022-10-17T19:25:41.646Z,26.77
2022-10-17T19:28:08.769Z,24.58
2022-10-17T19:30:35.956Z,24.48
2022-10-17T19:33:03.080Z,27.00
2022-10-17T19:35:30.192Z,24.77
2022-10-17T19:37:57.433Z,24.20
2022-10-17T19:40:24.553Z,22.30
2022-10-17T19:42:52.090Z,25.00
2022-10-17T19:45:19.269Z,24.77
2022-10-17T19:47:46.381Z,22.75
2022-10-17T19:50:13.601Z,15.68
2022-10-17T19:52:40.856Z,22.02
2022-10-17T19:55:08.200Z,23.20
2022-10-17T19:57:36.519Z,20.70
2022-10-17T20:00:03.884Z,23.13
2022-10-17T20:02:31.259Z,22.98
2022-10-17T20:05:13.967Z,18.65
2022-10-17T20:07:45.517Z,19.63
2022-10-17T20:10:12.621Z,20.20
2022-10-17T20:12:39.730Z,21.58
2022-10-17T20:15:07.103Z,21.52
2022-10-17T20:20:08.743Z,19.00
2022-10-17T20:22:36.151Z,22.40
2022-10-17T20:25:03.422Z,18.92
2022-10-17T20:27:30.623Z,22.35
2022-10-17T20:30:01.673Z,19.35
2022-10-17T20:32:29.275Z,19.80
2022-10-17T20:34:56.634Z,27.25
2022-10-17T20:37:24.113Z,18.80
2022-10-17T20:39:59.981Z,21.75
2022-10-17T20:42:38.053Z,19.63
2022-10-17T20:45:06.003Z,17.90
2022-10-17T20:47:46.118Z,16.77
2022-10-17T20:50:15.461Z,19.15
2022-10-17T20:52:42.565Z,19.27
2022-10-17T20:55:09.960Z,18.98
2022-10-17T20:57:37.211Z,17.55
2022-10-17T21:00:05.344Z,16.50
2022-10-17T21:02:33.117Z,21.38
2022-10-17T21:05:00.375Z,19.27
2022-10-17T21:07:27.682Z,21.08
2022-10-17T21:09:55.009Z,17.40
2022-10-17T21:12:31.466Z,20.50
2022-10-17T21:15:10.322Z,22.25
2022-10-17T21:17:37.531Z,19.08
2022-10-17T21:20:04.919Z,18.05
2022-10-17T21:22:33.655Z,19.52
2022-10-17T21:25:00.967Z,18.83
2022-10-17T21:27:28.102Z,17.38
2022-10-17T21:29:55.269Z,17.17
2022-10-17T21:32:33.460Z,23.08
2022-10-17T21:35:09.871Z,17.67
2022-10-17T21:37:37.198Z,18.33
2022-10-17T21:40:04.691Z,17.52
2022-10-17T21:42:32.161Z,19.75
2022-10-17T21:44:59.547Z,18.42
2022-10-17T21:47:27.670Z,22.05
2022-10-17T21:49:54.913Z,18.80
2022-10-17T21:52:22.079Z,17.55
2022-10-17T21:54:49.197Z,17.75
2022-10-17T21:59:44.668Z,17.35
2022-10-17T22:02:11.791Z,20.00
2022-10-17T22:04:38.906Z,19.35
2022-10-17T22:07:06.089Z,15.30
2022-10-17T22:09:33.206Z,17.58
2022-10-17T22:12:00.308Z,18.00
2022-10-17T22:14:28.138Z,20.45
2022-10-17T22:16:55.653Z,19.73
2022-10-17T22:19:24.857Z,20.42
2022-10-17T22:21:52.118Z,16.95
2022-10-17T22:26:52.532Z,17.27
2022-10-17T22:29:19.722Z,23.02
2022-10-17T22:31:47.092Z,18.05
2022-10-17T22:34:14.969Z,20.35
2022-10-17T22:36:42.418Z,21.02
2022-10-17T22:39:09.549Z,17.55
2022-10-17T22:41:36.736Z,14.40
2022-10-17T22:44:03.980Z,17.10
2022-10-17T22:46:31.173Z,18.85
2022-10-17T22:48:58.377Z,20.48
2022-10-17T22:51:25.549Z,23.42
2022-10-17T22:53:52.746Z,17.95
2022-10-17T22:56:20.718Z,15.45
2022-10-17T22:58:48.338Z,15.15
2022-10-17T23:01:17.079Z,18.52
2022-10-17T23:03:44.653Z,21.13
2022-10-17T23:06:11.874Z,18.95
2022-10-17T23:08:39.049Z,17.60
2022-10-17T23:11:06.942Z,16.60
2022-10-17T23:13:34.202Z,18.33
2022-10-17T23:16:01.434Z,18.83
2022-10-17T23:18:28.740Z,18.40
2022-10-17T23:20:56.148Z,17.88
2022-10-17T23:23:23.381Z,17.38
2022-10-17T23:25:51.581Z,16.35
2022-10-17T23:28:18.782Z,18.92
2022-10-17T23:30:46.028Z,15.88
2022-10-17T23:33:13.722Z,16.20
2022-10-17T23:35:41.099Z,17.80
2022-10-17T23:38:08.496Z,19.33
2022-10-17T23:40:35.718Z,14.45
2022-10-17T23:43:03.548Z,14.43
2022-10-17T23:45:34.780Z,16.55
2022-10-17T23:48:04.320Z,16.67
2022-10-17T23:50:31.459Z,14.73
2022-10-17T23:52:58.580Z,17.92
2022-10-17T23:55:25.762Z,16.55
2022-10-17T23:57:53.142Z,18.63
